Darstellungsparameter: Aktuell verwendete Einstellungen:
Skalierung der Graphiken ... ?
xyx+y,   Skalierungsfaktor:      Skalierung: Modus: x, Faktor: 1
Darstellungszeitraum ... ?
Vom - - bis: - -   Zeitraum: 17.01.2011 - 17.01.2011
Min/Max/Avg-Anzeige ... ?
Zeige MMA aktuell
Zeige MMA Monat
Zeige MMA alles
Zeige --A aktuell
Zeige --A Monat
Zeige --A alles
Keine MMA-Anzeige
MMA:
Minimum Maximum Average (ber die Originaldaten)
MMA-Basis: 23.03.2019 - 25.04.2019
Quicknavigation für Darstellung... ?
Tage:      1T, 2T, 3T, 5T -1T -2T -3T -5T +1T +2T +3T +5T
Wochen: 1W, 2W, 3W -1W -2W -3W +1W +2W +3W
Monate: 1M, 3M, 6M -1M -3M -6M +1M +3M +6M
Jahre:    1J, 3J, 5J, 10J -1J -3J -5J -10J +1J +3J +5J +10J
Nutze für die Darstellung ... ?
Originaldaten oder Mittelwerte auf ...
Stundenbasis Tagesbasis Wochenbasis
Monatsbasis Jahresbasis      Datenbasis: Original-Daten
Darstellen als:
Statistik (Auto) Statistik J:M      Darstellung:
Zur Graphik,    zurück zur Übersicht aller Sensoren.
 
Tabellarische Datenbersicht: ?
 
Sensor: Nr:Datum:Temp:Abs-Feuchte:Windchill:Wind:
Aussen-T/F 1 17-01-2011 00:06:04 1.2 C 4.84 g/m*3 1.2 C 0 km/h
2 17-01-2011 00:18:04 1.6 C 5.03 g/m*3 1.6 C 0 km/h
3 17-01-2011 00:30:04 1.4 C 4.91 g/m*3 1.4 C 0 km/h
4 17-01-2011 00:42:04 1.4 C 4.91 g/m*3 1.4 C 0 km/h
5 17-01-2011 00:54:04 1.4 C 4.96 g/m*3 1.4 C 0 km/h
6 17-01-2011 01:06:04 0.9 C 4.79 g/m*3 0.9 C 0 km/h
7 17-01-2011 01:18:04 1.2 C 4.89 g/m*3 1.2 C 0 km/h
8 17-01-2011 01:30:04 1.5 C 4.99 g/m*3 1.5 C 0 km/h
9 17-01-2011 01:42:04 1.3 C 4.93 g/m*3 1.3 C 0 km/h
10 17-01-2011 01:54:04 1 C 4.78 g/m*3 1 C 0 km/h
11 17-01-2011 02:06:04 0.7 C 4.73 g/m*3 0.7 C 0 km/h
12 17-01-2011 02:18:05 1.5 C 4.99 g/m*3 1.5 C 0 km/h
13 17-01-2011 02:30:05 1.3 C 4.93 g/m*3 1.3 C 0 km/h
14 17-01-2011 02:42:05 1 C 4.83 g/m*3 1 C 0 km/h
15 17-01-2011 02:54:05 1.1 C 4.86 g/m*3 1.1 C 0 km/h
16 17-01-2011 03:06:05 1.4 C 4.96 g/m*3 1.4 C 0 km/h
17 17-01-2011 03:18:05 1.5 C 4.99 g/m*3 1.5 C 0 km/h
18 17-01-2011 03:30:05 0.9 C 4.85 g/m*3 0.9 C 0 km/h
19 17-01-2011 03:42:05 0.9 C 4.85 g/m*3 0.9 C 0 km/h
20 17-01-2011 03:54:05 0.5 C 4.71 g/m*3 0.5 C 0 km/h
21 17-01-2011 04:06:05 0.2 C 4.57 g/m*3 0.2 C 0 km/h
22 17-01-2011 04:18:05 -0.1 C 4.47 g/m*3 -0.1 C 0 km/h
23 17-01-2011 04:30:05 -0.3 C 4.41 g/m*3 -0.3 C 0 km/h
24 17-01-2011 04:42:05 0.1 C 4.54 g/m*3 0.1 C 0 km/h
25 17-01-2011 04:54:05 -0.1 C 4.47 g/m*3 -0.1 C 0 km/h
Sensor: Nr:Datum:Temp:Abs-Feuchte:Windchill:Wind:
Aussen-T/F 26 17-01-2011 05:06:05 0.6 C 4.75 g/m*3 0.6 C 0 km/h
27 17-01-2011 05:18:05 0.5 C 4.71 g/m*3 0.5 C 0 km/h
28 17-01-2011 05:30:05 -0.2 C 4.44 g/m*3 -0.2 C 0 km/h
29 17-01-2011 05:42:05 -0.5 C 4.35 g/m*3 -0.5 C 0 km/h
30 17-01-2011 05:54:05 0 C 4.51 g/m*3 0 C 0 km/h
31 17-01-2011 06:06:05 -0.3 C 4.41 g/m*3 -0.3 C 0 km/h
32 17-01-2011 06:18:06 -0.3 C 4.41 g/m*3 -0.3 C 0 km/h
33 17-01-2011 06:30:06 -0.6 C 4.32 g/m*3 -0.6 C 0 km/h
34 17-01-2011 06:42:06 -1 C 4.2 g/m*3 -1 C 0 km/h
35 17-01-2011 06:54:03 -0.9 C 4.23 g/m*3 -0.9 C 0 km/h
36 17-01-2011 07:06:02 -0.7 C 4.29 g/m*3 -0.7 C 0 km/h
37 17-01-2011 07:18:02 0.2 C 4.62 g/m*3 0.2 C 0 km/h
38 17-01-2011 07:30:02 0 C 4.55 g/m*3 0 C 0 km/h
39 17-01-2011 07:42:02 -0.5 C 4.35 g/m*3 -0.5 C 0 km/h
40 17-01-2011 07:54:02 -1 C 4.2 g/m*3 -1 C 0 km/h
41 17-01-2011 08:06:02 -1 C 4.2 g/m*3 -1 C 0 km/h
42 17-01-2011 08:18:02 -1 C 4.2 g/m*3 -1 C 0 km/h
43 17-01-2011 08:30:02 -1.1 C 4.17 g/m*3 -1.1 C 0 km/h
44 17-01-2011 08:42:03 -0.2 C 4.49 g/m*3 -0.2 C 0 km/h
45 17-01-2011 08:54:01 0 C 4.55 g/m*3 0 C 0 km/h
46 17-01-2011 09:06:02 0.4 C 4.68 g/m*3 0.4 C 0 km/h
47 17-01-2011 09:18:01 0.7 C 4.78 g/m*3 0.7 C 0 km/h
48 17-01-2011 09:30:01 0.8 C 4.81 g/m*3 0.8 C 0 km/h
49 17-01-2011 09:42:02 0.9 C 4.85 g/m*3 0.9 C 0 km/h
50 17-01-2011 09:54:01 0.8 C 4.81 g/m*3 0.8 C 0 km/h
Sensor: Nr:Datum:Temp:Abs-Feuchte:Windchill:Wind:
Aussen-T/F 51 17-01-2011 10:06:02 0.7 C 4.78 g/m*3 0.7 C 0 km/h
52 17-01-2011 10:18:02 0.7 C 4.78 g/m*3 0.7 C 0 km/h
53 17-01-2011 10:30:02 0.4 C 4.68 g/m*3 0.4 C 0 km/h
54 17-01-2011 10:42:01 0.6 C 4.75 g/m*3 0.6 C 0 km/h
55 17-01-2011 10:54:02 1 C 4.88 g/m*3 1 C 0 km/h
56 17-01-2011 11:06:01 1 C 4.88 g/m*3 1 C 0 km/h
57 17-01-2011 11:18:02 1 C 4.88 g/m*3 1 C 0 km/h
58 17-01-2011 11:30:02 1.7 C 5.12 g/m*3 1.7 C 0 km/h
59 17-01-2011 11:42:01 2.9 C 5.55 g/m*3 2.9 C 0 km/h
60 17-01-2011 11:54:02 4.1 C 5.95 g/m*3 4.1 C 0 km/h
61 17-01-2011 12:06:02 5 C 6.32 g/m*3 5 C 0 km/h
62 17-01-2011 12:18:02 4.9 C 6.35 g/m*3 4.9 C 0 km/h
63 17-01-2011 12:30:02 5.4 C 6.49 g/m*3 5.4 C 0 km/h
64 17-01-2011 12:42:03 5.8 C 6.66 g/m*3 5.8 C 0 km/h
65 17-01-2011 12:54:02 6 C 6.68 g/m*3 6 C 0 km/h
66 17-01-2011 13:06:02 6.3 C 6.81 g/m*3 6.3 C 0 km/h
67 17-01-2011 13:18:01 6.3 C 6.74 g/m*3 6.3 C 0 km/h
68 17-01-2011 13:30:01 6 C 6.46 g/m*3 6 C 0 km/h
69 17-01-2011 13:42:02 5.8 C 6.38 g/m*3 5.8 C 0 km/h
70 17-01-2011 13:54:02 5.9 C 6.35 g/m*3 5.9 C 0 km/h
71 17-01-2011 14:06:02 6 C 6.17 g/m*3 6 C 0 km/h
72 17-01-2011 14:18:02 6.3 C 6.22 g/m*3 6.3 C 0 km/h
73 17-01-2011 14:30:02 6.5 C 6.15 g/m*3 6.5 C 0 km/h
74 17-01-2011 14:42:02 6.6 C 5.96 g/m*3 6.6 C 0 km/h
75 17-01-2011 14:54:02 6.6 C 5.89 g/m*3 6.6 C 0 km/h
Sensor: Nr:Datum:Temp:Abs-Feuchte:Windchill:Wind:
Aussen-T/F 76 17-01-2011 15:06:02 6.7 C 5.85 g/m*3 6.7 C 0 km/h
77 17-01-2011 15:18:02 6.5 C 5.92 g/m*3 6.5 C 0 km/h
78 17-01-2011 15:30:02 6.2 C 5.88 g/m*3 6.2 C 0 km/h
79 17-01-2011 15:42:02 5.8 C 5.87 g/m*3 5.8 C 0 km/h
80 17-01-2011 15:54:02 5.7 C 5.98 g/m*3 5.7 C 0 km/h
81 17-01-2011 16:06:03 6.2 C 6.1 g/m*3 6.2 C 0 km/h
82 17-01-2011 16:18:02 5.6 C 5.94 g/m*3 5.6 C 0 km/h
83 17-01-2011 16:30:02 6.1 C 6.06 g/m*3 6.1 C 0 km/h
84 17-01-2011 16:42:02 6.3 C 5.85 g/m*3 6.3 C 0 km/h
85 17-01-2011 16:54:01 6.7 C 5.85 g/m*3 6.7 C 0 km/h
86 17-01-2011 17:06:02 6.4 C 5.74 g/m*3 6.4 C 0 km/h
87 17-01-2011 17:18:01 6.1 C 5.77 g/m*3 6.1 C 0 km/h
88 17-01-2011 17:30:01 6.3 C 5.85 g/m*3 6.3 C 0 km/h
89 17-01-2011 17:42:01 6.2 C 5.88 g/m*3 6.2 C 0 km/h
90 17-01-2011 17:54:01 6 C 5.88 g/m*3 6 C 0 km/h
91 17-01-2011 18:06:02 5.9 C 5.98 g/m*3 5.9 C 0 km/h
92 17-01-2011 18:18:02 6 C 6.02 g/m*3 6 C 0 km/h
93 17-01-2011 18:30:02 6 C 6.02 g/m*3 6 C 0 km/h
94 17-01-2011 18:42:01 6 C 6.1 g/m*3 6 C 0 km/h
95 17-01-2011 18:54:01 6 C 6.1 g/m*3 6 C 0 km/h
96 17-01-2011 19:06:01 6 C 6.1 g/m*3 6 C 0 km/h
97 17-01-2011 19:18:02 6.2 C 6.1 g/m*3 6.2 C 0 km/h
98 17-01-2011 19:30:02 6.3 C 6.07 g/m*3 6.3 C 0 km/h
99 17-01-2011 19:42:02 6.3 C 6.07 g/m*3 6.3 C 0 km/h
100 17-01-2011 19:54:03 6.3 C 6.14 g/m*3 6.3 C 0 km/h
Sensor: Nr:Datum:Temp:Abs-Feuchte:Windchill:Wind:
Aussen-T/F 101 17-01-2011 20:06:03 6.5 C 6.15 g/m*3 6.5 C 0 km/h
102 17-01-2011 20:18:02 6.7 C 6.15 g/m*3 6.7 C 0 km/h
103 17-01-2011 20:30:02 6.8 C 6.19 g/m*3 6.8 C 0 km/h
104 17-01-2011 20:42:02 7.3 C 6.24 g/m*3 7.3 C 0 km/h
105 17-01-2011 20:54:02 7.4 C 6.2 g/m*3 7.4 C 0 km/h
106 17-01-2011 21:06:02 7.5 C 6.24 g/m*3 7.5 C 0 km/h
107 17-01-2011 21:18:03 7.9 C 6.32 g/m*3 7.9 C 0 km/h
108 17-01-2011 21:30:03 8.2 C 6.2 g/m*3 8.2 C 0 km/h
109 17-01-2011 21:42:02 8.2 C 6.2 g/m*3 8.2 C 0 km/h
110 17-01-2011 21:54:02 8.4 C 6.19 g/m*3 8.4 C 0 km/h
111 17-01-2011 22:06:02 8.2 C 6.11 g/m*3 8.2 C 0 km/h
112 17-01-2011 22:19:04 8.4 C 6.11 g/m*3 8.4 C 0 km/h
113 17-01-2011 22:31:04 8.2 C 6.11 g/m*3 8.2 C 0 km/h
114 17-01-2011 22:43:04 8.2 C 6.11 g/m*3 8.2 C 0 km/h
115 17-01-2011 22:55:04 8.4 C 6.19 g/m*3 8.4 C 0 km/h
116 17-01-2011 23:07:04 8.4 C 6.19 g/m*3 8.4 C 0 km/h
117 17-01-2011 23:19:04 8.6 C 6.27 g/m*3 8.6 C 0 km/h
118 17-01-2011 23:31:04 8.6 C 6.19 g/m*3 8.6 C 0 km/h
119 17-01-2011 23:43:04 8.5 C 6.23 g/m*3 8.5 C 0 km/h
120 17-01-2011 23:55:04 8.7 C 6.31 g/m*3 8.7 C 0 km/h

Legende:
   Min
   Max


Maximal/Minimal-Werte vom 23.03.2019 - 25.04.2019

Sensor Min Max Avg
Temp
(Aussen-T/F)
0.3 °C
14-04-2019  00:50:00
26.6 °C
24-04-2019  17:05:00
9.96 °C

Die Daten stammen von einer Davis Vantage Pro 2 Wetter-Station und werden unter Linux mit der Software wview2wettercgi und aufbereitet. Alle Angaben erfolgen ohne Gewähr für ihre Vollständigkeit oder Richtigkeit.
Kontakt: Rainer Krienke krienke@uni-koblenz.de . Meine Webseiten an der Uni Koblenz oder privat.
Version: $Revision: 0.78 $